createdAt,value
2023-04-20T00:00:11.188Z,4.33
2023-04-20T00:02:38.741Z,4.07
2023-04-20T00:05:09.301Z,4.27
2023-04-20T00:07:36.805Z,4.90
2023-04-20T00:10:04.393Z,4.47
2023-04-20T00:12:31.076Z,4.53
2023-04-20T00:14:57.737Z,4.10
2023-04-20T00:17:24.386Z,4.67
2023-04-20T00:19:51.439Z,4.20
2023-04-20T00:22:18.056Z,3.77
2023-04-20T00:24:44.649Z,4.43
2023-04-20T00:27:11.929Z,4.13
2023-04-20T00:29:38.556Z,4.10
2023-04-20T00:32:05.460Z,3.57
2023-04-20T00:34:32.102Z,3.60
2023-04-20T00:36:58.670Z,4.00
2023-04-20T00:39:25.415Z,4.03
2023-04-20T00:41:52.096Z,4.00
2023-04-20T00:44:18.691Z,4.40
2023-04-20T00:46:46.568Z,3.80
2023-04-20T00:49:13.292Z,3.80
2023-04-20T00:51:40.035Z,4.00
2023-04-20T00:54:07.028Z,3.50
2023-04-20T00:56:34.252Z,3.30
2023-04-20T00:59:02.385Z,3.60
2023-04-20T01:01:29.116Z,4.33
2023-04-20T01:03:56.095Z,4.07
2023-04-20T01:06:22.857Z,4.10
2023-04-20T01:08:51.152Z,3.80
2023-04-20T01:11:18.310Z,4.10
2023-04-20T01:13:45.565Z,4.30
2023-04-20T01:16:13.035Z,3.80
2023-04-20T01:18:51.145Z,4.53
2023-04-20T01:21:20.019Z,3.63
2023-04-20T01:23:46.953Z,3.80
2023-04-20T01:26:16.884Z,4.13
2023-04-20T01:28:44.186Z,4.07
2023-04-20T01:31:11.896Z,4.07
2023-04-20T01:33:38.953Z,3.70
2023-04-20T01:36:07.428Z,3.73
2023-04-20T01:38:34.877Z,3.40
2023-04-20T01:41:04.511Z,4.53
2023-04-20T01:43:31.731Z,3.43
2023-04-20T01:45:59.667Z,3.37
2023-04-20T01:48:26.364Z,4.40
2023-04-20T01:50:53.542Z,4.00
2023-04-20T01:53:20.982Z,4.23
2023-04-20T01:55:48.594Z,4.03
2023-04-20T01:58:15.771Z,4.30
2023-04-20T02:00:42.490Z,3.97
2023-04-20T02:03:09.460Z,4.80
2023-04-20T02:05:36.152Z,4.13
2023-04-20T02:08:02.847Z,3.90
2023-04-20T02:10:29.498Z,4.57
2023-04-20T02:12:56.219Z,4.17
2023-04-20T02:15:22.903Z,4.03
2023-04-20T02:17:52.541Z,3.43
2023-04-20T02:20:22.401Z,5.40
2023-04-20T02:22:49.074Z,4.33
2023-04-20T02:25:15.787Z,4.53
2023-04-20T02:27:42.673Z,3.93
2023-04-20T02:30:10.569Z,3.80
2023-04-20T02:32:37.575Z,3.80
2023-04-20T02:35:04.766Z,4.07
2023-04-20T02:37:31.643Z,4.40
2023-04-20T02:39:58.437Z,4.10
2023-04-20T02:42:25.122Z,3.87
2023-04-20T02:44:52.896Z,3.87
2023-04-20T02:47:19.848Z,4.00
2023-04-20T02:49:47.336Z,3.80
2023-04-20T02:52:14.227Z,4.10
2023-04-20T02:54:41.032Z,4.20
2023-04-20T02:57:07.701Z,4.53
2023-04-20T02:59:34.420Z,4.50
2023-04-20T03:02:01.122Z,3.57
2023-04-20T03:04:28.135Z,4.27
2023-04-20T03:06:54.887Z,4.07
2023-04-20T03:09:22.134Z,4.33
2023-04-20T03:11:49.636Z,4.23
2023-04-20T03:14:16.908Z,4.33
2023-04-20T03:16:43.764Z,4.07
2023-04-20T03:19:10.711Z,4.27
2023-04-20T03:21:37.369Z,4.07
2023-04-20T03:24:06.974Z,4.40
2023-04-20T03:26:33.592Z,4.53
2023-04-20T03:29:02.183Z,4.67
2023-04-20T03:31:28.812Z,3.93
2023-04-20T03:33:55.540Z,4.77
2023-04-20T03:36:22.272Z,4.53
2023-04-20T03:38:48.890Z,4.77
2023-04-20T03:41:15.984Z,3.80
2023-04-20T03:43:42.570Z,4.50
2023-04-20T03:46:09.241Z,4.10
2023-04-20T03:48:35.917Z,4.07
2023-04-20T03:51:02.663Z,4.50
2023-04-20T03:53:29.337Z,4.87
2023-04-20T03:55:56.206Z,4.80
2023-04-20T03:58:22.903Z,4.30
2023-04-20T04:00:49.556Z,4.13
2023-04-20T04:03:16.389Z,3.77
2023-04-20T04:05:43.338Z,4.60
2023-04-20T04:08:09.986Z,4.47
2023-04-20T04:10:36.631Z,4.77
2023-04-20T04:13:03.302Z,4.03
2023-04-20T04:15:29.903Z,4.37
2023-04-20T04:17:56.573Z,4.50
2023-04-20T04:20:23.258Z,4.83
2023-04-20T04:22:49.928Z,5.10
2023-04-20T04:25:17.455Z,5.47
2023-04-20T04:27:46.481Z,5.00
2023-04-20T04:30:13.810Z,5.00
2023-04-20T04:32:41.372Z,5.17
2023-04-20T04:35:08.510Z,5.70
2023-04-20T04:37:35.140Z,4.10
2023-04-20T04:40:04.437Z,5.10
2023-04-20T04:42:31.194Z,5.00
2023-04-20T04:44:58.582Z,5.57
2023-04-20T04:47:25.629Z,6.47
2023-04-20T04:49:52.330Z,4.93
2023-04-20T04:52:18.976Z,5.63
2023-04-20T04:54:45.944Z,4.93
2023-04-20T04:57:12.730Z,4.90
2023-04-20T04:59:39.376Z,5.00
2023-04-20T05:02:06.045Z,5.27
2023-04-20T05:04:32.868Z,6.50
2023-04-20T05:06:59.647Z,5.57
2023-04-20T05:09:26.669Z,6.43
2023-04-20T05:11:53.253Z,5.00
2023-04-20T05:14:19.935Z,5.30
2023-04-20T05:16:46.545Z,5.33
2023-04-20T05:19:13.229Z,6.07
2023-04-20T05:21:40.007Z,5.90
2023-04-20T05:24:07.311Z,5.53
2023-04-20T05:26:33.970Z,5.23
2023-04-20T05:29:00.626Z,5.20
2023-04-20T05:31:27.512Z,5.70
2023-04-20T05:33:54.146Z,4.60
2023-04-20T05:36:20.990Z,6.13
2023-04-20T05:38:47.642Z,5.40
2023-04-20T05:41:14.265Z,5.07
2023-04-20T05:43:41.103Z,5.73
2023-04-20T05:46:07.963Z,5.00
2023-04-20T05:48:34.653Z,5.63
2023-04-20T05:51:01.287Z,6.43
2023-04-20T05:53:27.886Z,5.27
2023-04-20T05:55:54.489Z,6.17
2023-04-20T05:58:21.253Z,5.93
2023-04-20T06:00:47.866Z,6.60
2023-04-20T06:03:14.680Z,6.47
2023-04-20T06:05:41.620Z,6.73
2023-04-20T06:08:08.443Z,6.30
2023-04-20T06:10:36.316Z,6.40
2023-04-20T06:13:03.080Z,6.83
2023-04-20T06:15:30.145Z,7.57
2023-04-20T06:17:57.104Z,7.43
2023-04-20T06:20:23.888Z,7.47
2023-04-20T06:22:50.617Z,7.63
2023-04-20T06:25:17.240Z,7.30
2023-04-20T06:27:43.904Z,6.60
2023-04-20T06:30:11.763Z,6.93
2023-04-20T06:32:38.600Z,7.03
2023-04-20T06:35:06.639Z,6.43
2023-04-20T06:37:33.331Z,6.47
2023-04-20T06:39:59.971Z,7.13
2023-04-20T06:42:27.237Z,7.13
2023-04-20T06:44:53.894Z,6.60
2023-04-20T06:47:20.841Z,7.67
2023-04-20T06:49:47.515Z,5.97
2023-04-20T06:52:14.116Z,7.23
2023-04-20T06:54:40.813Z,7.30
2023-04-20T06:57:07.472Z,6.10
2023-04-20T06:59:34.069Z,5.90
2023-04-20T07:02:02.526Z,7.83
2023-04-20T07:04:29.416Z,7.67
2023-04-20T07:06:56.161Z,7.67
2023-04-20T07:09:23.285Z,6.97
2023-04-20T07:11:50.108Z,7.43
2023-04-20T07:14:16.765Z,7.73
2023-04-20T07:16:43.548Z,7.03
2023-04-20T07:19:10.415Z,8.03
2023-04-20T07:21:37.237Z,7.73
2023-04-20T07:24:04.178Z,6.77
2023-04-20T07:26:31.249Z,6.93
2023-04-20T07:28:57.919Z,6.90
2023-04-20T07:31:24.664Z,7.20
2023-04-20T07:33:51.446Z,6.97
2023-04-20T07:36:18.185Z,6.37
2023-04-20T07:38:44.805Z,6.97
2023-04-20T07:41:11.752Z,6.60
2023-04-20T07:43:39.241Z,6.47
2023-04-20T07:46:06.077Z,6.67
2023-04-20T07:48:34.379Z,7.07
2023-04-20T07:51:02.232Z,6.33
2023-04-20T07:53:29.854Z,5.80
2023-04-20T07:55:56.564Z,6.70
2023-04-20T07:58:23.223Z,6.00
2023-04-20T08:00:49.864Z,5.77
2023-04-20T08:03:16.573Z,6.77
2023-04-20T08:05:43.296Z,5.97
2023-04-20T08:08:10.273Z,6.53
2023-04-20T08:10:37.302Z,6.20
2023-04-20T08:13:04.003Z,5.60
2023-04-20T08:15:31.632Z,6.00
2023-04-20T08:17:58.616Z,7.27
2023-04-20T08:20:25.430Z,6.17
2023-04-20T08:22:52.928Z,5.90
2023-04-20T08:25:19.676Z,5.43
2023-04-20T08:27:46.492Z,6.50
2023-04-20T08:30:13.254Z,6.80
2023-04-20T08:32:41.203Z,6.37
2023-04-20T08:35:08.680Z,5.87
2023-04-20T08:37:35.781Z,6.70
2023-04-20T08:40:02.466Z,6.47
2023-04-20T08:42:29.195Z,6.67
2023-04-20T08:44:55.873Z,6.43
2023-04-20T08:47:22.685Z,6.73
2023-04-20T08:49:53.714Z,5.40
2023-04-20T08:52:20.570Z,6.13
2023-04-20T08:54:56.002Z,6.40
2023-04-20T08:57:23.082Z,6.70
2023-04-20T08:59:49.848Z,7.50
2023-04-20T09:02:16.636Z,5.83
2023-04-20T09:04:43.561Z,6.40
2023-04-20T09:07:21.598Z,6.37
2023-04-20T09:10:00.104Z,6.33
2023-04-20T09:12:28.258Z,6.40
2023-04-20T09:14:55.969Z,7.17
2023-04-20T09:17:34.324Z,7.40
2023-04-20T09:20:01.167Z,6.47
2023-04-20T09:22:37.559Z,7.50
2023-04-20T09:25:17.361Z,5.90
2023-04-20T09:27:43.960Z,6.20
2023-04-20T09:30:11.245Z,6.33
2023-04-20T09:32:37.940Z,6.40
2023-04-20T09:35:04.829Z,5.83
2023-04-20T09:37:31.525Z,5.40
2023-04-20T09:40:00.365Z,6.03
2023-04-20T09:42:28.892Z,6.27
2023-04-20T09:44:56.116Z,6.57
2023-04-20T09:47:23.076Z,6.87
2023-04-20T09:49:50.553Z,6.93
2023-04-20T09:52:18.670Z,5.83
2023-04-20T09:54:45.838Z,6.37
2023-04-20T09:57:14.254Z,6.33
2023-04-20T09:59:43.715Z,5.73
2023-04-20T10:02:14.320Z,6.27
2023-04-20T10:04:58.060Z,6.10
2023-04-20T10:07:30.725Z,6.37
2023-04-20T10:10:09.399Z,6.47
2023-04-20T10:12:53.033Z,5.80
2023-04-20T10:15:21.776Z,6.40
2023-04-20T10:17:49.098Z,5.83
2023-04-20T10:20:24.614Z,6.20
2023-04-20T10:23:06.154Z,5.50
2023-04-20T10:25:32.794Z,6.63
2023-04-20T10:28:04.628Z,5.93
2023-04-20T10:30:32.661Z,6.23
2023-04-20T10:33:11.351Z,5.93
2023-04-20T10:35:49.330Z,5.40
2023-04-20T10:38:16.540Z,4.90
2023-04-20T10:40:43.287Z,5.90
2023-04-20T10:43:21.433Z,6.23
2023-04-20T10:45:49.571Z,5.83
2023-04-20T10:48:18.126Z,5.93
2023-04-20T10:50:45.438Z,5.70
2023-04-20T10:53:23.266Z,6.40
2023-04-20T10:56:00.257Z,6.87
2023-04-20T10:58:27.688Z,5.77
2023-04-20T11:01:01.632Z,6.43
2023-04-20T11:03:29.643Z,6.47
2023-04-20T11:06:00.972Z,5.07
2023-04-20T11:08:40.809Z,5.30
2023-04-20T11:11:28.299Z,5.87
2023-04-20T11:14:11.917Z,6.53
2023-04-20T11:19:09.419Z,5.40
2023-04-20T11:21:41.487Z,6.10
2023-04-20T11:24:21.764Z,5.67
2023-04-20T11:26:54.369Z,5.70
2023-04-20T11:29:38.887Z,5.17
2023-04-20T11:32:10.696Z,5.30
2023-04-20T11:34:39.362Z,5.37
2023-04-20T11:37:10.612Z,5.40
2023-04-20T11:39:38.155Z,4.73
2023-04-20T11:42:05.800Z,4.67
2023-04-20T11:44:33.051Z,4.47
2023-04-20T11:47:00.032Z,5.20
2023-04-20T11:49:29.190Z,4.30
2023-04-20T11:51:56.058Z,5.50
2023-04-20T11:54:24.350Z,4.00
2023-04-20T11:56:51.341Z,4.70
2023-04-20T11:59:20.149Z,4.23
2023-04-20T12:01:48.220Z,4.83
2023-04-20T12:04:15.805Z,5.03
2023-04-20T12:06:42.832Z,4.83
2023-04-20T12:09:09.743Z,4.10
2023-04-20T12:11:36.544Z,4.30
2023-04-20T12:14:04.595Z,4.23
2023-04-20T12:16:31.346Z,4.53
2023-04-20T12:18:58.069Z,5.40
2023-04-20T12:21:24.648Z,4.93
2023-04-20T12:23:51.371Z,5.47
2023-04-20T12:26:18.130Z,5.17
2023-04-20T12:28:45.475Z,5.17
2023-04-20T12:31:12.419Z,6.37
2023-04-20T12:33:39.111Z,5.43
2023-04-20T12:36:06.098Z,5.60
2023-04-20T12:38:32.763Z,5.33
2023-04-20T12:40:59.470Z,6.00
2023-04-20T12:43:26.139Z,4.57
2023-04-20T12:45:52.801Z,4.97
2023-04-20T12:48:19.571Z,5.33
2023-04-20T12:50:46.244Z,5.00
2023-04-20T12:53:12.862Z,5.10
2023-04-20T12:55:39.534Z,4.67
2023-04-20T12:58:06.349Z,4.97
2023-04-20T13:00:33.092Z,4.83
2023-04-20T13:03:00.050Z,5.33
2023-04-20T13:05:26.961Z,5.30
2023-04-20T13:07:53.648Z,5.30
2023-04-20T13:10:20.509Z,5.30
2023-04-20T13:12:47.223Z,4.73
2023-04-20T13:15:13.849Z,5.13
2023-04-20T13:17:41.430Z,4.60
2023-04-20T13:20:08.553Z,4.13
2023-04-20T13:22:37.228Z,5.23
2023-04-20T13:25:10.491Z,5.17
2023-04-20T13:27:37.092Z,4.37
2023-04-20T13:30:07.888Z,4.37
2023-04-20T13:32:35.492Z,3.33
2023-04-20T13:35:03.856Z,4.37
2023-04-20T13:37:33.124Z,4.17
2023-04-20T13:40:00.516Z,3.77
2023-04-20T13:42:27.150Z,4.10
2023-04-20T13:44:53.785Z,4.40
2023-04-20T13:47:20.586Z,4.53
2023-04-20T13:49:47.228Z,4.57
2023-04-20T13:52:13.830Z,4.90
2023-04-20T13:54:40.713Z,4.07
2023-04-20T13:57:07.330Z,4.17
2023-04-20T13:59:33.950Z,3.90
2023-04-20T14:02:00.759Z,4.57
2023-04-20T14:04:27.593Z,4.47
2023-04-20T14:06:54.330Z,4.37
2023-04-20T14:09:21.492Z,4.03
2023-04-20T14:11:50.413Z,4.50
2023-04-20T14:14:19.410Z,3.53
2023-04-20T14:16:47.835Z,4.27
2023-04-20T14:19:14.926Z,4.30
2023-04-20T14:21:44.187Z,3.27
2023-04-20T14:24:11.745Z,3.80
2023-04-20T14:26:38.457Z,3.40
2023-04-20T14:29:08.278Z,3.60
2023-04-20T14:31:35.516Z,3.47
2023-04-20T14:34:02.639Z,3.37
2023-04-20T14:36:30.183Z,2.53
2023-04-20T14:38:56.814Z,2.50
2023-04-20T14:41:23.585Z,2.60
2023-04-20T14:43:50.223Z,2.20
2023-04-20T14:46:19.004Z,2.63
2023-04-20T14:48:46.390Z,3.03
2023-04-20T14:51:13.738Z,2.93
2023-04-20T14:53:40.460Z,3.10
2023-04-20T14:56:07.361Z,2.63
2023-04-20T14:58:34.258Z,3.43
2023-04-20T15:01:00.994Z,2.90
2023-04-20T15:03:27.975Z,2.93
2023-04-20T15:06:00.218Z,3.77
2023-04-20T15:08:27.367Z,4.23
2023-04-20T15:10:56.686Z,3.30
2023-04-20T15:13:24.033Z,3.67
2023-04-20T15:15:52.654Z,4.70
2023-04-20T15:18:20.920Z,3.37
2023-04-20T15:20:47.544Z,3.53
2023-04-20T15:23:14.164Z,3.63
2023-04-20T15:25:40.734Z,3.50
2023-04-20T15:28:07.317Z,3.47
2023-04-20T15:30:33.960Z,5.20
2023-04-20T15:33:04.610Z,10.37
2023-04-20T15:35:32.227Z,6.37
2023-04-20T15:37:59.119Z,4.23
2023-04-20T15:40:27.501Z,3.37
2023-04-20T15:42:57.666Z,5.20
2023-04-20T15:45:24.676Z,4.63
2023-04-20T15:47:51.677Z,3.07
2023-04-20T15:50:18.562Z,3.00
2023-04-20T15:52:45.814Z,3.03
2023-04-20T15:55:12.565Z,3.87
2023-04-20T15:57:39.259Z,3.60
2023-04-20T16:00:07.303Z,2.97
2023-04-20T16:02:34.264Z,2.90
2023-04-20T16:05:01.198Z,4.40
2023-04-20T16:07:28.078Z,4.40
2023-04-20T16:09:54.675Z,3.87
2023-04-20T16:12:21.381Z,3.17
2023-04-20T16:14:48.667Z,3.07
2023-04-20T16:17:15.710Z,3.17
2023-04-20T16:19:42.358Z,3.30
2023-04-20T16:22:09.018Z,2.83
2023-04-20T16:24:35.705Z,3.10
2023-04-20T16:27:02.557Z,2.70
2023-04-20T16:29:29.210Z,3.53
2023-04-20T16:31:56.479Z,2.90
2023-04-20T16:34:24.494Z,2.93
2023-04-20T16:36:51.200Z,2.67
2023-04-20T16:39:18.627Z,3.33
2023-04-20T16:41:45.628Z,3.50
2023-04-20T16:44:16.586Z,3.03
2023-04-20T16:46:44.243Z,3.10
2023-04-20T16:49:10.924Z,3.00
2023-04-20T16:51:37.561Z,3.30
2023-04-20T16:54:04.388Z,2.60
2023-04-20T16:56:31.026Z,3.57
2023-04-20T16:58:58.258Z,3.40
2023-04-20T17:01:25.070Z,4.43
2023-04-20T17:03:51.863Z,4.90
2023-04-20T17:06:18.563Z,5.17
2023-04-20T17:08:45.196Z,6.67
2023-04-20T17:11:13.007Z,7.27
2023-04-20T17:13:39.613Z,6.00
2023-04-20T17:16:06.256Z,9.00
2023-04-20T17:18:34.350Z,8.63
2023-04-20T17:21:02.305Z,6.50
2023-04-20T17:23:29.729Z,8.40
2023-04-20T17:25:56.408Z,7.33
2023-04-20T17:28:23.078Z,6.20
2023-04-20T17:30:49.810Z,6.20
2023-04-20T17:33:16.537Z,6.37
2023-04-20T17:35:43.289Z,6.00
2023-04-20T17:38:09.904Z,6.40
2023-04-20T17:40:36.588Z,5.30
2023-04-20T17:43:03.247Z,5.60
2023-04-20T17:45:29.828Z,4.10
2023-04-20T17:47:56.647Z,4.50
2023-04-20T17:50:23.501Z,7.33
2023-04-20T17:52:51.496Z,6.07
2023-04-20T17:55:18.330Z,5.50
2023-04-20T17:57:45.009Z,6.03
2023-04-20T18:00:12.130Z,6.33
2023-04-20T18:02:39.896Z,5.40
2023-04-20T18:05:07.228Z,5.20
2023-04-20T18:07:34.599Z,6.03
2023-04-20T18:10:01.503Z,4.63
2023-04-20T18:12:28.194Z,4.27
2023-04-20T18:14:54.910Z,4.27
2023-04-20T18:17:21.571Z,4.87
2023-04-20T18:19:48.339Z,4.57
2023-04-20T18:22:15.449Z,4.47
2023-04-20T18:24:42.113Z,4.30
2023-04-20T18:27:09.094Z,4.43
2023-04-20T18:29:35.912Z,5.37
2023-04-20T18:32:02.631Z,4.10
2023-04-20T18:34:32.042Z,3.90
2023-04-20T18:36:59.206Z,4.90
2023-04-20T18:39:26.405Z,4.47
2023-04-20T18:41:53.091Z,5.27
2023-04-20T18:44:20.196Z,4.43
2023-04-20T18:46:47.272Z,5.33
2023-04-20T18:49:13.950Z,4.53
2023-04-20T18:51:40.904Z,5.37
2023-04-20T18:56:58.833Z,6.47
2023-04-20T18:59:25.613Z,5.87
2023-04-20T19:01:52.511Z,6.10
2023-04-20T19:04:19.832Z,6.30
2023-04-20T19:06:46.713Z,6.33
2023-04-20T19:09:13.505Z,5.87
2023-04-20T19:11:40.161Z,6.50
2023-04-20T19:14:06.935Z,6.33
2023-04-20T19:16:34.273Z,7.23
2023-04-20T19:19:03.194Z,7.27
2023-04-20T19:21:30.437Z,7.37
2023-04-20T19:23:57.170Z,6.33
2023-04-20T19:26:25.058Z,6.67
2023-04-20T19:28:51.761Z,6.37
2023-04-20T19:31:18.413Z,5.93
2023-04-20T19:33:45.018Z,6.17
2023-04-20T19:36:11.736Z,6.53
2023-04-20T19:38:38.753Z,5.80
2023-04-20T19:41:06.487Z,6.07
2023-04-20T19:43:33.241Z,6.30
2023-04-20T19:46:00.073Z,5.77
2023-04-20T19:48:26.834Z,5.60
2023-04-20T19:50:56.286Z,5.40
2023-04-20T19:53:23.297Z,4.60
2023-04-20T19:55:49.921Z,4.67
2023-04-20T19:58:16.503Z,4.37
2023-04-20T20:00:43.139Z,4.70
2023-04-20T20:03:11.652Z,5.40
2023-04-20T20:05:38.514Z,5.83
2023-04-20T20:08:05.139Z,5.10
2023-04-20T20:10:32.090Z,6.03
2023-04-20T20:12:58.679Z,4.87
2023-04-20T20:15:25.372Z,5.03
2023-04-20T20:17:55.416Z,5.40
2023-04-20T20:20:30.222Z,4.40
2023-04-20T20:22:57.274Z,4.77
2023-04-20T20:25:24.410Z,5.10
2023-04-20T20:27:51.458Z,4.87
2023-04-20T20:30:18.513Z,4.97
2023-04-20T20:32:45.222Z,4.40
2023-04-20T20:35:13.147Z,4.17
2023-04-20T20:37:45.390Z,4.30
2023-04-20T20:40:14.991Z,3.57
2023-04-20T20:42:45.319Z,4.87
2023-04-20T20:45:12.858Z,4.27
2023-04-20T20:47:41.201Z,4.67
2023-04-20T20:50:08.913Z,4.50
2023-04-20T20:52:35.670Z,4.70
2023-04-20T20:55:02.352Z,4.10
2023-04-20T20:57:28.997Z,4.57
2023-04-20T20:59:55.690Z,3.90
2023-04-20T21:02:22.495Z,4.97
2023-04-20T21:04:49.155Z,4.27
2023-04-20T21:07:15.920Z,3.70
2023-04-20T21:09:42.622Z,5.37
2023-04-20T21:12:09.401Z,5.00
2023-04-20T21:14:37.296Z,5.63
2023-04-20T21:17:04.715Z,4.90
2023-04-20T21:19:31.937Z,5.90
2023-04-20T21:21:58.890Z,5.70
2023-04-20T21:24:25.720Z,5.77
2023-04-20T21:26:52.612Z,5.20
2023-04-20T21:29:19.834Z,5.37
2023-04-20T21:31:46.907Z,5.70
2023-04-20T21:34:13.604Z,5.43
2023-04-20T21:36:40.200Z,4.47
2023-04-20T21:39:06.926Z,4.23
2023-04-20T21:41:33.558Z,5.03
2023-04-20T21:44:02.079Z,4.47
2023-04-20T21:46:28.797Z,4.70
2023-04-20T21:48:55.620Z,4.47
2023-04-20T21:51:22.373Z,4.43
2023-04-20T21:53:49.449Z,4.37
2023-04-20T21:56:16.173Z,4.40
2023-04-20T21:58:42.861Z,5.30
2023-04-20T22:01:09.540Z,4.60
2023-04-20T22:03:37.632Z,4.63
2023-04-20T22:06:05.263Z,4.60
2023-04-20T22:08:32.059Z,5.00
2023-04-20T22:10:58.678Z,4.63
2023-04-20T22:13:25.497Z,4.67
2023-04-20T22:15:52.791Z,5.50
2023-04-20T22:18:19.660Z,5.10
2023-04-20T22:20:46.304Z,4.50
2023-04-20T22:23:12.866Z,4.37
2023-04-20T22:25:40.739Z,4.37
2023-04-20T22:28:07.438Z,4.73
2023-04-20T22:30:34.260Z,4.43
2023-04-20T22:33:01.427Z,4.27
2023-04-20T22:35:28.966Z,4.47
2023-04-20T22:37:56.447Z,4.97
2023-04-20T22:40:23.997Z,3.70
2023-04-20T22:42:51.089Z,4.80
2023-04-20T22:45:20.004Z,4.47
2023-04-20T22:47:47.337Z,5.27
2023-04-20T22:50:14.248Z,4.77
2023-04-20T22:52:41.659Z,4.10
2023-04-20T22:55:10.155Z,4.93
2023-04-20T22:57:37.334Z,4.37
2023-04-20T23:00:07.943Z,4.43
2023-04-20T23:02:34.702Z,4.40
2023-04-20T23:05:01.749Z,4.30
2023-04-20T23:07:28.339Z,4.50
2023-04-20T23:09:56.533Z,4.30
2023-04-20T23:12:23.386Z,4.60
2023-04-20T23:14:50.928Z,4.73
2023-04-20T23:17:17.562Z,4.70
2023-04-20T23:19:44.167Z,4.10
2023-04-20T23:22:11.039Z,4.53
2023-04-20T23:24:37.703Z,4.33
2023-04-20T23:27:04.476Z,4.77
2023-04-20T23:29:31.178Z,4.30
2023-04-20T23:31:57.980Z,3.70
2023-04-20T23:34:25.033Z,3.73
2023-04-20T23:36:53.877Z,4.53
2023-04-20T23:39:21.142Z,4.80
2023-04-20T23:41:47.920Z,4.30
2023-04-20T23:44:14.683Z,4.33
2023-04-20T23:46:41.377Z,3.93
2023-04-20T23:49:08.064Z,3.83
2023-04-20T23:51:34.674Z,4.17
2023-04-20T23:54:01.920Z,3.60
2023-04-20T23:56:28.536Z,4.13
2023-04-20T23:58:55.269Z,3.03
